Time;durP1;ratioP1;P1;durP2;ratioP2;P2;SDS_P1;SDS_P2;PMS_P1;PMS_P2;Temp;Humidity;BMP_temperature;BMP_pressure;BME280_temperature;BME280_humidity;BME280_pressure;Samples;Min_cycle;Max_cycle;Signal;HPM_P1;HPM_P2
2023/08/07 00:00:29;;;;;;;3.93;2.90;;;16.80;99.90;;;;;;4992988;28;20455;-56
2023/08/07 00:02:56;;;;;;;3.67;2.70;;;;;;;;;;4993101;28;20438;-56
2023/08/07 00:05:23;;;;;;;5.23;2.93;;;;;;;;;;4992973;28;20477;-56
2023/08/07 00:07:51;;;;;;;3.90;3.17;;;17.10;99.90;;;;;;4992516;28;20767;-55
2023/08/07 00:10:18;;;;;;;6.47;3.40;;;16.90;99.90;;;;;;4992701;28;20413;-56
2023/08/07 00:12:44;;;;;;;3.70;2.87;;;16.90;99.90;;;;;;4992656;28;20908;-56
2023/08/07 00:15:11;;;;;;;4.00;3.07;;;16.70;99.90;;;;;;4992686;28;20455;-57
2023/08/07 00:17:38;;;;;;;3.43;2.70;;;;;;;;;;4992368;28;20806;-56
2023/08/07 00:20:06;;;;;;;3.30;2.80;;;16.80;99.90;;;;;;4992722;28;20814;-57
2023/08/07 00:22:33;;;;;;;3.87;3.00;;;17.00;99.90;;;;;;4996605;28;20441;-54
2023/08/07 00:25:01;;;;;;;5.90;3.50;;;16.90;99.90;;;;;;4993590;28;20438;-55
2023/08/07 00:27:27;;;;;;;5.10;3.07;;;16.80;99.90;;;;;;4992116;28;20562;-55
2023/08/07 00:29:54;;;;;;;4.40;3.37;;;16.70;99.90;;;;;;4991264;28;20450;-55
2023/08/07 00:32:21;;;;;;;5.80;3.43;;;;;;;;;;4990981;28;21013;-55
2023/08/07 00:34:48;;;;;;;3.60;3.30;;;;;;;;;;4992386;28;20523;-56
2023/08/07 00:37:15;;;;;;;5.93;3.80;;;;;;;;;;4990949;28;20976;-56
2023/08/07 00:39:41;;;;;;;7.07;3.50;;;16.90;99.90;;;;;;4992480;28;20428;-56
2023/08/07 00:42:09;;;;;;;4.23;3.53;;;16.60;99.90;;;;;;4993656;28;20447;-56
2023/08/07 00:44:36;;;;;;;14.93;3.50;;;16.90;99.90;;;;;;4998940;28;20438;-56
2023/08/07 00:47:03;;;;;;;6.30;3.80;;;;;;;;;;4998430;28;20471;-56
2023/08/07 00:49:30;;;;;;;5.90;3.90;;;16.80;99.90;;;;;;4998805;28;20435;-56
2023/08/07 00:51:57;;;;;;;4.27;3.10;;;17.00;99.90;;;;;;4998960;28;20674;-57
2023/08/07 00:54:24;;;;;;;5.27;3.40;;;16.90;99.90;;;;;;4997483;28;20452;-56
2023/08/07 00:56:50;;;;;;;5.10;3.63;;;16.70;99.90;;;;;;4999652;28;20478;-55
2023/08/07 00:59:19;;;;;;;7.20;3.60;;;17.00;99.90;;;;;;5000577;28;20819;-55
2023/08/07 01:01:46;;;;;;;4.20;3.20;;;;;;;;;;4997839;28;20826;-56
2023/08/07 01:04:13;;;;;;;4.83;3.67;;;16.60;99.90;;;;;;4997531;28;20422;-55
2023/08/07 01:06:41;;;;;;;4.43;3.70;;;17.00;99.90;;;;;;4998526;28;20450;-56
2023/08/07 01:09:08;;;;;;;6.80;3.60;;;;;;;;;;4998564;28;20442;-56
2023/08/07 01:11:45;;;;;;;4.63;3.27;;;17.00;99.90;;;;;;4998582;28;20841;-55
2023/08/07 01:14:19;;;;;;;6.93;4.00;;;16.90;99.90;;;;;;4998727;28;20439;-55
2023/08/07 01:16:52;;;;;;;4.67;3.17;;;16.60;99.90;;;;;;4998403;28;20456;-57
2023/08/07 01:19:24;;;;;;;4.97;3.43;;;16.90;99.90;;;;;;4997447;28;20837;-56
2023/08/07 01:22:05;;;;;;;4.00;3.60;;;16.60;99.90;;;;;;4997336;28;20484;-56
2023/08/07 01:24:32;;;;;;;4.47;3.43;;;;;;;;;;4998572;28;20785;-56
2023/08/07 01:27:08;;;;;;;5.37;3.83;;;16.70;99.90;;;;;;4998293;28;20451;-56
2023/08/07 01:29:39;;;;;;;6.17;3.77;;;16.80;99.90;;;;;;4998496;28;20899;-56
2023/08/07 01:32:09;;;;;;;5.40;3.53;;;16.90;99.90;;;;;;4998293;28;20824;-55
2023/08/07 01:34:36;;;;;;;4.20;3.60;;;17.00;99.90;;;;;;4998526;28;20533;-56
2023/08/07 01:37:06;;;;;;;5.30;3.40;;;16.90;99.90;;;;;;4996807;28;20947;-55
2023/08/07 01:39:34;;;;;;;4.90;3.27;;;;;;;;;;4998509;28;20404;-55
2023/08/07 01:42:02;;;;;;;3.30;2.83;;;16.80;99.90;;;;;;4997228;28;20450;-54
2023/08/07 01:44:29;;;;;;;3.30;3.00;;;16.90;99.90;;;;;;4997065;28;20456;-56
2023/08/07 01:46:57;;;;;;;4.07;2.73;;;16.60;99.90;;;;;;5003287;28;20868;-56
2023/08/07 01:49:24;;;;;;;4.80;3.23;;;16.90;99.90;;;;;;4998629;28;20822;-56
2023/08/07 01:51:51;;;;;;;5.10;3.23;;;;;;;;;;4997205;28;20852;-56
2023/08/07 01:54:18;;;;;;;5.53;3.33;;;17.00;99.90;;;;;;4994354;28;20442;-56
2023/08/07 01:56:45;;;;;;;6.00;3.50;;;16.70;99.90;;;;;;4994930;28;20465;-56
2023/08/07 01:59:12;;;;;;;3.90;3.17;;;16.60;99.90;;;;;;4994135;28;20472;-56
2023/08/07 02:01:38;;;;;;;3.83;3.43;;;16.80;99.90;;;;;;4994277;28;20447;-55
2023/08/07 02:04:05;;;;;;;9.70;3.90;;;16.80;99.90;;;;;;4995009;28;20497;-56
2023/08/07 02:06:31;;;;;;;6.20;3.77;;;16.70;99.90;;;;;;4994589;28;20494;-56
2023/08/07 02:08:58;;;;;;;6.17;3.73;;;16.50;99.90;;;;;;4995625;28;20964;-56
2023/08/07 02:11:26;;;;;;;5.13;3.67;;;16.40;99.90;;;;;;4994643;28;20474;-56
2023/08/07 02:13:55;;;;;;;7.03;4.13;;;16.70;99.90;;;;;;4994709;28;20465;-55
2023/08/07 02:16:22;;;;;;;5.47;4.07;;;16.70;99.90;;;;;;4994420;28;20878;-57
2023/08/07 02:18:48;;;;;;;9.23;4.37;;;16.80;99.90;;;;;;4995206;28;20445;-56
2023/08/07 02:21:15;;;;;;;7.73;3.97;;;;;;;;;;4996356;28;20429;-56
2023/08/07 02:23:42;;;;;;;7.10;4.40;;;16.50;99.90;;;;;;4996610;28;20441;-55
2023/08/07 02:26:08;;;;;;;5.53;3.93;;;16.70;99.90;;;;;;4996022;28;20485;-55
2023/08/07 02:28:36;;;;;;;6.70;4.40;;;17.00;99.90;;;;;;4993321;28;20447;-55
2023/08/07 02:31:03;;;;;;;5.60;4.40;;;16.80;99.90;;;;;;4994772;28;20454;-55
2023/08/07 02:33:30;;;;;;;6.70;3.70;;;17.10;99.90;;;;;;4994787;28;20435;-56
2023/08/07 02:35:57;;;;;;;5.00;4.00;;;16.80;99.90;;;;;;4994560;28;20520;-56
2023/08/07 02:38:23;;;;;;;7.93;4.50;;;16.50;99.90;;;;;;4994473;28;20807;-55
2023/08/07 02:40:50;;;;;;;5.70;4.40;;;17.20;99.90;;;;;;4994615;28;20434;-56
2023/08/07 02:43:16;;;;;;;5.07;4.40;;;17.50;99.90;;;;;;4993513;28;20810;-56
2023/08/07 02:45:44;;;;;;;5.00;4.47;;;17.00;99.90;;;;;;4994880;28;20454;-56
2023/08/07 02:48:11;;;;;;;5.87;4.30;;;17.20;99.90;;;;;;4993164;28;20443;-56
2023/08/07 02:50:37;;;;;;;6.10;4.97;;;17.00;99.90;;;;;;4993526;28;20547;-56
2023/08/07 02:53:04;;;;;;;6.57;5.30;;;16.90;99.90;;;;;;4994427;28;20502;-55
2023/08/07 02:55:31;;;;;;;6.30;4.67;;;17.20;99.90;;;;;;4994163;28;20461;-55
2023/08/07 02:57:57;;;;;;;10.23;4.70;;;17.20;99.90;;;;;;4993900;28;20444;-56
2023/08/07 03:00:24;;;;;;;9.03;5.90;;;17.10;99.90;;;;;;4994026;28;20418;-56
2023/08/07 03:02:52;;;;;;;10.83;5.63;;;16.80;99.90;;;;;;4993887;28;20467;-55
2023/08/07 03:05:19;;;;;;;6.10;5.27;;;16.80;99.90;;;;;;4999287;28;20446;-55
2023/08/07 03:07:46;;;;;;;6.00;4.87;;;;;;;;;;4994066;28;20842;-56
2023/08/07 03:10:12;;;;;;;8.03;4.90;;;16.90;99.90;;;;;;4992897;28;20446;-56
2023/08/07 03:12:39;;;;;;;6.17;4.50;;;17.00;99.90;;;;;;4993949;28;20462;-56
2023/08/07 03:15:08;;;;;;;6.37;5.30;;;16.90;99.90;;;;;;4993736;28;20543;-55
2023/08/07 03:17:34;;;;;;;6.77;4.33;;;16.90;99.90;;;;;;4992078;28;20466;-55
2023/08/07 03:20:03;;;;;;;9.43;5.60;;;17.00;99.90;;;;;;4992637;28;21046;-57
2023/08/07 03:22:30;;;;;;;8.57;5.70;;;17.10;99.90;;;;;;4993662;28;20454;-56
2023/08/07 03:24:57;;;;;;;7.90;5.40;;;16.80;99.90;;;;;;4992387;28;20448;-56
2023/08/07 03:27:23;;;;;;;6.97;4.80;;;17.10;99.90;;;;;;4991929;28;20513;-56
2023/08/07 03:29:50;;;;;;;10.43;6.80;;;16.90;99.90;;;;;;4992169;28;20538;-56
2023/08/07 03:32:17;;;;;;;10.67;5.87;;;16.70;99.90;;;;;;4992268;28;20450;-55
2023/08/07 03:34:44;;;;;;;10.00;5.63;;;16.90;99.90;;;;;;4993468;28;20434;-55
2023/08/07 03:37:13;;;;;;;7.60;5.73;;;17.10;99.90;;;;;;4992044;28;20878;-56
2023/08/07 03:39:40;;;;;;;8.23;5.87;;;17.00;99.90;;;;;;4993237;28;20522;-56
2023/08/07 03:42:07;;;;;;;7.70;5.47;;;17.00;99.90;;;;;;4993228;28;20454;-56
2023/08/07 03:44:34;;;;;;;8.90;6.17;;;16.80;99.90;;;;;;4993200;28;20439;-55
2023/08/07 03:47:01;;;;;;;7.27;5.80;;;16.70;99.90;;;;;;4996108;28;20656;-53
2023/08/07 03:49:27;;;;;;;6.50;5.73;;;16.90;99.90;;;;;;4993263;28;20479;-54
2023/08/07 03:51:54;;;;;;;9.30;5.77;;;17.00;99.90;;;;;;4991861;28;20536;-52
2023/08/07 03:54:22;;;;;;;6.33;5.73;;;17.30;99.90;;;;;;4991936;28;20958;-53
2023/08/07 03:56:51;;;;;;;5.80;5.00;;;16.80;99.90;;;;;;4992558;28;20511;-55
2023/08/07 03:59:18;;;;;;;6.00;5.20;;;17.20;99.90;;;;;;4991666;28;20450;-53
2023/08/07 04:01:45;;;;;;;9.10;5.93;;;17.20;99.90;;;;;;4991769;28;21145;-54
2023/08/07 04:04:12;;;;;;;9.20;6.30;;;17.30;99.90;;;;;;4991696;28;20443;-54
2023/08/07 04:06:39;;;;;;;7.00;5.97;;;16.90;99.90;;;;;;4991262;28;20503;-53
2023/08/07 04:09:06;;;;;;;9.73;6.30;;;17.30;99.90;;;;;;4992801;28;20435;-54
2023/08/07 04:11:34;;;;;;;6.67;5.93;;;17.30;99.90;;;;;;4991500;28;20440;-54
2023/08/07 04:14:00;;;;;;;8.13;5.80;;;17.20;99.90;;;;;;4992875;28;20877;-53
2023/08/07 04:16:27;;;;;;;6.90;6.17;;;17.00;99.90;;;;;;4992086;28;20438;-54
2023/08/07 04:18:53;;;;;;;11.60;5.60;;;17.10;99.90;;;;;;4991105;28;20430;-53
2023/08/07 04:21:20;;;;;;;6.20;5.60;;;17.30;99.90;;;;;;4992544;28;20412;-54
2023/08/07 04:23:48;;;;;;;5.87;5.00;;;17.10;99.90;;;;;;4991135;28;20468;-54
2023/08/07 04:26:15;;;;;;;8.10;5.30;;;17.20;99.90;;;;;;4991000;28;20549;-52
2023/08/07 04:28:43;;;;;;;7.80;5.20;;;17.30;99.90;;;;;;4990967;28;20424;-53
2023/08/07 04:31:09;;;;;;;6.53;5.30;;;17.30;99.90;;;;;;4992461;28;20444;-54
2023/08/07 04:33:36;;;;;;;8.23;5.57;;;17.10;99.90;;;;;;4992426;28;21027;-55
2023/08/07 04:36:03;;;;;;;5.47;4.90;;;17.60;99.90;;;;;;4992303;28;20470;-54
2023/08/07 04:38:29;;;;;;;7.07;5.70;;;17.40;99.90;;;;;;4992171;28;20452;-53
2023/08/07 04:40:56;;;;;;;9.37;5.33;;;17.30;99.90;;;;;;4992314;28;20413;-54
2023/08/07 04:43:23;;;;;;;6.23;4.70;;;17.50;99.90;;;;;;4992423;28;20503;-55
2023/08/07 04:45:51;;;;;;;8.07;5.20;;;17.70;99.90;;;;;;4991986;28;20812;-53
2023/08/07 04:48:18;;;;;;;6.40;5.00;;;17.60;99.90;;;;;;4992006;28;20417;-54
2023/08/07 04:50:44;;;;;;;9.13;5.33;;;17.90;99.90;;;;;;4992270;28;20440;-54
2023/08/07 04:53:11;;;;;;;5.03;4.50;;;18.20;99.90;;;;;;4992225;28;20538;-53
2023/08/07 04:55:38;;;;;;;7.30;5.30;;;17.70;99.90;;;;;;4992143;28;20431;-53
2023/08/07 04:58:04;;;;;;;8.37;4.30;;;17.90;99.90;;;;;;4991901;28;20441;-54
2023/08/07 05:00:31;;;;;;;7.70;5.33;;;18.30;99.90;;;;;;4991787;28;20459;-55
2023/08/07 05:02:59;;;;;;;8.50;5.13;;;18.00;99.90;;;;;;4992064;28;20898;-54
2023/08/07 05:05:26;;;;;;;9.40;4.80;;;18.00;99.90;;;;;;4992032;28;20426;-51
2023/08/07 05:07:52;;;;;;;6.93;4.57;;;18.40;99.90;;;;;;4991609;28;20535;-52
2023/08/07 05:10:19;;;;;;;6.43;4.53;;;18.00;99.90;;;;;;4992063;28;20910;-54
2023/08/07 05:12:46;;;;;;;6.63;4.50;;;18.20;99.90;;;;;;4991721;28;20522;-54
2023/08/07 05:15:12;;;;;;;6.77;4.30;;;18.10;99.90;;;;;;4992351;28;20459;-54
2023/08/07 05:17:39;;;;;;;6.47;4.33;;;18.50;99.90;;;;;;4991899;28;20840;-53
2023/08/07 05:20:08;;;;;;;8.13;5.37;;;18.60;99.90;;;;;;4990781;28;20448;-54
2023/08/07 05:22:35;;;;;;;6.73;3.80;;;18.50;99.90;;;;;;4992454;28;20433;-53
2023/08/07 05:25:02;;;;;;;4.50;3.27;;;18.20;99.90;;;;;;4991948;28;20460;-54
2023/08/07 05:27:29;;;;;;;5.67;4.30;;;18.50;99.90;;;;;;4991504;28;20512;-53
2023/08/07 05:29:55;;;;;;;5.63;4.33;;;18.30;99.90;;;;;;4994311;28;20748;-54
2023/08/07 05:32:22;;;;;;;6.00;4.37;;;18.60;99.90;;;;;;4995634;28;20476;-53
2023/08/07 05:34:50;;;;;;;9.80;3.80;;;18.10;99.90;;;;;;4995432;28;20436;-53
2023/08/07 05:37:18;;;;;;;7.20;4.13;;;18.40;99.90;;;;;;4995006;28;20440;-52
2023/08/07 05:39:45;;;;;;;7.83;3.73;;;18.20;99.90;;;;;;4995521;28;20408;-53
2023/08/07 05:42:12;;;;;;;4.57;3.33;;;18.30;99.90;;;;;;4995190;28;20447;-52
2023/08/07 05:44:39;;;;;;;7.07;3.97;;;;;;;;;;4995216;28;20447;-54
2023/08/07 05:47:06;;;;;;;6.47;3.97;;;17.90;99.90;;;;;;4993643;28;20464;-53
2023/08/07 05:49:33;;;;;;;3.73;3.40;;;18.30;99.90;;;;;;4995191;28;20432;-53
2023/08/07 05:51:59;;;;;;;6.67;3.53;;;18.20;99.90;;;;;;4995158;28;20444;-54
2023/08/07 05:54:27;;;;;;;6.07;3.83;;;18.20;99.90;;;;;;4995374;28;20410;-55
2023/08/07 05:56:54;;;;;;;4.63;3.73;;;18.20;99.90;;;;;;4994570;28;20456;-55
2023/08/07 05:59:20;;;;;;;4.43;3.70;;;18.40;99.90;;;;;;4993825;28;20459;-53
2023/08/07 06:01:47;;;;;;;4.17;3.30;;;18.50;99.90;;;;;;4995056;28;20441;-53
2023/08/07 06:04:14;;;;;;;5.50;3.87;;;;;;;;;;4995053;28;20775;-54
2023/08/07 06:06:42;;;;;;;4.53;3.23;;;18.60;99.90;;;;;;4995045;28;20445;-57
2023/08/07 06:09:09;;;;;;;7.30;3.57;;;18.50;99.90;;;;;;4995094;28;20444;-55
2023/08/07 06:11:37;;;;;;;4.80;3.50;;;18.90;99.90;;;;;;4994900;28;20764;-54
2023/08/07 06:14:03;;;;;;;4.60;3.53;;;18.50;99.90;;;;;;4994483;28;20518;-56
2023/08/07 06:16:30;;;;;;;5.10;3.67;;;18.60;99.90;;;;;;4994390;28;20456;-54
2023/08/07 06:18:57;;;;;;;4.97;3.47;;;;;;;;;;4993945;28;20821;-54
2023/08/07 06:21:24;;;;;;;5.07;4.20;;;18.80;99.90;;;;;;4994576;28;20440;-53
2023/08/07 06:23:50;;;;;;;4.80;3.30;;;18.90;99.90;;;;;;4994665;28;20817;-53
2023/08/07 06:26:17;;;;;;;6.90;4.13;;;;;;;;;;4994434;28;20819;-54
2023/08/07 06:28:45;;;;;;;4.70;3.40;;;19.10;99.90;;;;;;4993863;28;20438;-53
2023/08/07 06:31:13;;;;;;;5.73;3.60;;;19.00;99.90;;;;;;4994188;28;20418;-53
2023/08/07 06:33:40;;;;;;;5.00;3.00;;;;;;;;;;4993084;28;20534;-55
2023/08/07 06:36:08;;;;;;;4.70;3.20;;;18.90;99.90;;;;;;4994137;28;20464;-53
2023/08/07 06:38:35;;;;;;;5.37;2.67;;;19.10;99.90;;;;;;4994082;28;20961;-54
2023/08/07 06:41:01;;;;;;;6.47;3.27;;;19.40;99.90;;;;;;4993897;28;20448;-53
2023/08/07 06:43:28;;;;;;;3.67;3.13;;;19.30;99.90;;;;;;4994122;28;20871;-54
2023/08/07 06:45:57;;;;;;;8.90;3.53;;;19.20;99.90;;;;;;4994145;28;20472;-54
2023/08/07 06:48:24;;;;;;;5.33;3.10;;;;;;;;;;4993172;28;20441;-54
2023/08/07 06:50:52;;;;;;;3.40;2.60;;;19.30;99.90;;;;;;4993856;28;20440;-53
2023/08/07 06:53:19;;;;;;;4.17;2.73;;;;;;;;;;4994065;28;20482;-55
2023/08/07 06:55:45;;;;;;;6.20;2.50;;;19.30;99.90;;;;;;4993680;28;20453;-53
2023/08/07 06:58:12;;;;;;;3.50;2.30;;;;;;;;;;4993355;28;20801;-54
2023/08/07 07:00:39;;;;;;;3.67;2.40;;;;;;;;;;4993978;28;20431;-52
2023/08/07 07:03:09;;;;;;;4.70;2.33;;;19.40;99.90;;;;;;4993927;28;20439;-53
2023/08/07 07:05:36;;;;;;;6.60;2.47;;;;;;;;;;4993795;28;20453;-54
2023/08/07 07:08:03;;;;;;;4.30;2.53;;;19.50;99.90;;;;;;4993256;28;20437;-54
2023/08/07 07:10:30;;;;;;;5.47;2.90;;;;;;;;;;4993778;28;20463;-54
2023/08/07 07:12:57;;;;;;;4.70;2.40;;;;;;;;;;4993686;28;20579;-53
2023/08/07 07:15:24;;;;;;;4.80;2.60;;;;;;;;;;4993706;28;20462;-55
2023/08/07 07:17:51;;;;;;;4.60;2.47;;;19.80;99.90;;;;;;4994525;28;20445;-54
2023/08/07 07:20:20;;;;;;;3.83;2.17;;;19.90;99.90;;;;;;4993555;28;20777;-54
2023/08/07 07:22:46;;;;;;;5.00;2.70;;;19.90;99.90;;;;;;4993380;28;20446;-55
2023/08/07 07:25:13;;;;;;;7.77;5.43;;;19.90;99.90;;;;;;4993391;28;20469;-53
2023/08/07 07:27:40;;;;;;;4.80;2.80;;;20.10;99.90;;;;;;4993003;28;20491;-54
2023/08/07 07:30:08;;;;;;;3.97;2.20;;;20.00;99.90;;;;;;4993362;28;20405;-52
2023/08/07 07:32:35;;;;;;;5.97;3.20;;;19.90;99.90;;;;;;4992243;28;20502;-53
2023/08/07 07:35:01;;;;;;;6.10;2.30;;;20.10;99.90;;;;;;4993293;28;20484;-54
2023/08/07 07:37:31;;;;;;;4.33;2.27;;;20.20;99.90;;;;;;4992799;28;20420;-53
2023/08/07 07:39:58;;;;;;;4.93;1.93;;;;;;;;;;4993131;28;20485;-53
2023/08/07 07:42:24;;;;;;;5.40;2.30;;;20.20;99.90;;;;;;4993271;28;20431;-52
2023/08/07 07:44:51;;;;;;;5.43;2.80;;;20.30;99.90;;;;;;4992643;28;20437;-55
2023/08/07 07:47:17;;;;;;;4.23;2.20;;;20.30;99.90;;;;;;4993293;28;20437;-54
2023/08/07 07:49:46;;;;;;;5.80;3.00;;;20.20;99.90;;;;;;4993036;28;20444;-55
2023/08/07 07:52:12;;;;;;;4.90;2.30;;;20.40;99.90;;;;;;4992146;28;20955;-53
2023/08/07 07:54:40;;;;;;;3.27;1.87;;;20.60;99.90;;;;;;4992468;28;20487;-56
2023/08/07 07:57:07;;;;;;;7.17;2.90;;;20.60;99.90;;;;;;4992316;28;20446;-52
2023/08/07 07:59:34;;;;;;;4.17;2.30;;;20.60;99.90;;;;;;4992600;28;20460;-54
2023/08/07 08:02:01;;;;;;;5.80;2.30;;;20.70;99.90;;;;;;4992729;28;20431;-52
2023/08/07 08:04:28;;;;;;;5.87;1.90;;;;;;;;;;4992805;28;20458;-52
2023/08/07 08:06:55;;;;;;;3.20;2.27;;;20.90;99.90;;;;;;4992169;28;20452;-53
2023/08/07 08:09:21;;;;;;;5.57;2.17;;;21.00;99.90;;;;;;4992527;28;20444;-53
2023/08/07 08:11:49;;;;;;;10.40;2.47;;;21.00;99.90;;;;;;4992406;28;20833;-53
2023/08/07 08:14:16;;;;;;;5.20;2.23;;;21.00;99.90;;;;;;4992068;28;20476;-54
2023/08/07 08:16:42;;;;;;;7.33;2.13;;;21.10;99.90;;;;;;4991851;28;21001;-53
2023/08/07 08:19:09;;;;;;;5.90;2.10;;;21.20;99.90;;;;;;4992573;28;20434;-53
2023/08/07 08:21:36;;;;;;;6.43;2.40;;;;;;;;;;4992211;28;20440;-56
2023/08/07 08:24:04;;;;;;;3.13;2.20;;;;;;;;;;4992214;28;20439;-55
2023/08/07 08:26:31;;;;;;;3.93;2.20;;;;;;;;;;4991770;28;20535;-56
2023/08/07 08:28:59;;;;;;;9.50;2.70;;;21.30;99.90;;;;;;4991958;28;20794;-55
2023/08/07 08:31:26;;;;;;;4.57;2.33;;;;;;;;;;4990911;28;20440;-55
2023/08/07 08:33:52;;;;;;;5.83;2.33;;;21.00;99.90;;;;;;4992084;28;20480;-55
2023/08/07 08:36:19;;;;;;;3.33;2.30;;;;;;;;;;4992308;28;20459;-54
2023/08/07 08:38:48;;;;;;;6.27;2.57;;;;;;;;;;4991711;28;20824;-53
2023/08/07 08:41:15;;;;;;;5.67;2.80;;;;;;;;;;4991882;28;20433;-52
2023/08/07 08:43:42;;;;;;;3.17;2.33;;;;;;;;;;4992320;28;20450;-53
2023/08/07 08:46:10;;;;;;;3.70;2.60;;;;;;;;;;4992003;28;20475;-54
2023/08/07 08:48:39;;;;;;;4.13;2.70;;;21.10;99.90;;;;;;4991880;28;20419;-53
2023/08/07 08:51:08;;;;;;;3.33;2.43;;;21.20;99.90;;;;;;4992011;28;20865;-53
2023/08/07 08:53:35;;;;;;;4.97;2.50;;;;;;;;;;4991932;28;20479;-55
2023/08/07 08:56:02;;;;;;;3.90;3.20;;;21.40;99.90;;;;;;4991850;28;20809;-52
2023/08/07 08:58:29;;;;;;;7.47;2.70;;;21.50;99.90;;;;;;4989961;28;20551;-53
2023/08/07 09:00:56;;;;;;;5.50;2.23;;;21.50;99.20;;;;;;4992100;28;20451;-54
2023/08/07 09:03:25;;;;;;;4.23;2.10;;;21.50;99.10;;;;;;4993815;28;20433;-53
2023/08/07 09:05:54;;;;;;;3.37;2.20;;;21.60;99.10;;;;;;4995908;28;20460;-53
2023/08/07 09:08:22;;;;;;;3.03;2.30;;;;;;;;;;4995362;28;20433;-53
2023/08/07 09:10:49;;;;;;;7.77;3.10;;;;;;;;;;4995624;28;20442;-55
2023/08/07 09:13:21;;;;;;;6.43;5.00;;;21.80;98.30;;;;;;4994522;28;20467;-53
2023/08/07 09:15:50;;;;;;;5.93;3.93;;;21.90;98.30;;;;;;4994429;28;20471;-55
2023/08/07 09:18:18;;;;;;;2.70;1.83;;;22.00;97.90;;;;;;4995345;28;20411;-55
2023/08/07 09:20:46;;;;;;;5.03;2.40;;;22.10;97.70;;;;;;4995880;28;20441;-54
2023/08/07 09:23:13;;;;;;;6.67;2.70;;;;;;;;;;4994138;28;20453;-56
2023/08/07 09:25:40;;;;;;;5.07;2.30;;;22.10;97.00;;;;;;4995437;28;20467;-54
2023/08/07 09:28:07;;;;;;;4.60;2.23;;;22.00;97.10;;;;;;4995183;28;20445;-52
2023/08/07 09:30:36;;;;;;;4.83;2.33;;;;;;;;;;4995325;28;20427;-54
2023/08/07 09:33:03;;;;;;;5.23;2.10;;;22.20;97.50;;;;;;4995692;28;20418;-52
2023/08/07 09:35:32;;;;;;;4.37;2.70;;;22.40;97.50;;;;;;4995238;28;20496;-53
2023/08/07 09:38:00;;;;;;;3.63;2.10;;;22.40;97.50;;;;;;4994889;28;20904;-54
2023/08/07 09:40:26;;;;;;;3.33;2.33;;;22.40;96.70;;;;;;4995584;28;20841;-53
2023/08/07 09:42:54;;;;;;;4.10;2.17;;;22.40;97.30;;;;;;4995020;28;20801;-53
2023/08/07 09:45:22;;;;;;;4.63;2.20;;;22.40;96.00;;;;;;4995607;28;20482;-58
2023/08/07 09:47:58;;;;;;;5.10;2.27;;;22.50;96.50;;;;;;4994573;28;20438;-57
2023/08/07 09:50:26;;;;;;;4.60;2.17;;;22.50;96.40;;;;;;4990880;28;20458;-57
2023/08/07 09:52:53;;;;;;;4.63;2.15;;;22.70;95.90;;;;;;4990002;28;20440;-56
2023/08/07 09:55:21;;;;;;;7.25;2.75;;;22.70;95.80;;;;;;4994661;28;20456;-54
2023/08/07 09:57:49;;;;;;;4.10;2.20;;;22.70;96.10;;;;;;4994828;28;20200;-55
2023/08/07 10:00:17;;;;;;;4.57;2.10;;;22.70;96.30;;;;;;4994720;28;20973;-58
2023/08/07 10:02:44;;;;;;;3.37;2.13;;;22.60;96.30;;;;;;4994987;28;20493;-59
2023/08/07 10:05:11;;;;;;;4.03;1.90;;;;;;;;;;4994529;28;20963;-55
2023/08/07 10:07:38;;;;;;;3.97;2.00;;;22.70;96.60;;;;;;4993871;28;20454;-57
2023/08/07 10:10:06;;;;;;;3.50;2.17;;;22.80;96.50;;;;;;4994527;28;20436;-56
2023/08/07 10:12:35;;;;;;;4.63;2.33;;;22.80;96.60;;;;;;4994518;28;20489;-56
2023/08/07 10:15:02;;;;;;;4.37;2.00;;;22.70;95.70;;;;;;4992705;28;20494;-56
2023/08/07 10:17:30;;;;;;;4.40;1.50;;;22.80;96.10;;;;;;4994022;28;20438;-56
2023/08/07 10:19:57;;;;;;;6.90;2.43;;;22.60;95.70;;;;;;4994490;28;20450;-57
2023/08/07 10:22:26;;;;;;;4.30;1.60;;;22.60;95.40;;;;;;4993941;28;20439;-55
2023/08/07 10:24:54;;;;;;;9.20;1.97;;;;;;;;;;4994465;28;20973;-54
2023/08/07 10:27:24;;;;;;;4.30;2.50;;;22.60;94.70;;;;;;4993466;28;20446;-54
2023/08/07 10:29:54;;;;;;;11.93;2.10;;;22.60;95.00;;;;;;4995249;28;20506;-54
2023/08/07 10:32:23;;;;;;;6.13;2.10;;;22.70;94.90;;;;;;4994710;28;20434;-56
2023/08/07 10:34:51;;;;;;;4.60;1.90;;;;;;;;;;4993921;28;20484;-54
2023/08/07 10:37:38;;;;;;;4.23;2.23;;;22.80;94.10;;;;;;4993879;28;20792;-57
2023/08/07 10:40:07;;;;;;;4.57;2.20;;;22.80;93.60;;;;;;4993944;28;20463;-56
2023/08/07 10:42:56;;;;;;;5.63;1.73;;;22.80;93.80;;;;;;4994145;28;20537;-57
2023/08/07 10:45:24;;;;;;;4.17;2.20;;;23.00;94.00;;;;;;4993862;28;20474;-56
2023/08/07 10:47:58;;;;;;;3.63;1.67;;;23.00;93.60;;;;;;4993123;28;20811;-54
2023/08/07 10:50:29;;;;;;;4.13;1.77;;;23.10;93.60;;;;;;4993644;28;20447;-52
2023/08/07 10:52:56;;;;;;;4.57;1.60;;;23.10;93.60;;;;;;4993901;28;20914;-54
2023/08/07 10:55:24;;;;;;;3.07;1.60;;;;;;;;;;4993646;28;20461;-55
2023/08/07 10:57:51;;;;;;;2.40;1.40;;;23.00;93.40;;;;;;4993389;28;21005;-55
2023/08/07 11:00:26;;;;;;;2.60;1.57;;;22.70;93.90;;;;;;4992529;28;20532;-53
2023/08/07 11:02:52;;;;;;;3.43;1.63;;;22.60;94.00;;;;;;4993484;28;20437;-55
2023/08/07 11:05:20;;;;;;;7.27;3.00;;;22.50;93.80;;;;;;4993543;28;20466;-54
2023/08/07 11:07:47;;;;;;;5.93;2.03;;;;;;;;;;4993053;28;20438;-54
2023/08/07 11:10:15;;;;;;;4.90;1.87;;;;;;;;;;4992049;28;20440;-54
2023/08/07 11:12:42;;;;;;;3.33;2.00;;;;;;;;;;4993593;28;20436;-55
2023/08/07 11:15:14;;;;;;;6.50;2.00;;;22.20;96.80;;;;;;4993294;28;20544;-55
2023/08/07 11:17:42;;;;;;;4.97;1.97;;;22.00;97.70;;;;;;4992630;28;20427;-55
2023/08/07 11:20:10;;;;;;;3.70;1.97;;;21.90;98.70;;;;;;4992944;28;20458;-55
2023/08/07 11:22:40;;;;;;;4.10;2.27;;;22.00;98.90;;;;;;4993114;28;20505;-55
2023/08/07 11:25:13;;;;;;;3.77;1.93;;;22.00;99.20;;;;;;4993404;28;20458;-55
2023/08/07 11:27:41;;;;;;;4.20;2.17;;;22.10;99.30;;;;;;4993092;28;20446;-57
2023/08/07 11:30:12;;;;;;;3.77;2.03;;;22.10;99.30;;;;;;4993478;28;20456;-56
2023/08/07 11:32:38;;;;;;;14.77;13.23;;;22.20;99.30;;;;;;4993410;28;20414;-53
2023/08/07 11:35:08;;;;;;;29.13;26.03;;;22.40;99.10;;;;;;4993203;28;20490;-55
2023/08/07 11:37:35;;;;;;;5.93;3.50;;;22.40;99.40;;;;;;4991694;28;20459;-55
2023/08/07 11:40:02;;;;;;;4.17;2.27;;;22.00;99.00;;;;;;4992670;28;20422;-57
2023/08/07 11:42:29;;;;;;;4.13;2.60;;;22.60;98.00;;;;;;4992156;28;20732;-55
2023/08/07 11:44:55;;;;;;;4.10;2.27;;;22.50;97.90;;;;;;4991624;28;20507;-56
2023/08/07 11:47:22;;;;;;;3.77;2.20;;;22.20;98.10;;;;;;4992742;28;20422;-56
2023/08/07 11:49:49;;;;;;;3.83;1.90;;;22.40;98.40;;;;;;4992662;28;20439;-56
2023/08/07 11:52:17;;;;;;;3.97;2.10;;;22.30;98.00;;;;;;4992364;28;20447;-56
2023/08/07 11:54:48;;;;;;;4.40;2.80;;;22.50;98.10;;;;;;4992676;28;20478;-56
2023/08/07 11:57:18;;;;;;;4.83;2.30;;;22.50;98.10;;;;;;4991919;28;20543;-54
2023/08/07 11:59:49;;;;;;;4.03;2.30;;;22.70;98.10;;;;;;4992877;28;20449;-55
2023/08/07 12:02:17;;;;;;;6.90;2.40;;;;;;;;;;4992611;28;20439;-54
2023/08/07 12:04:44;;;;;;;4.40;2.30;;;23.10;97.30;;;;;;4992106;28;20883;-56
2023/08/07 12:07:11;;;;;;;7.70;3.63;;;23.10;96.40;;;;;;4991882;28;20930;-56
2023/08/07 12:09:39;;;;;;;5.40;2.53;;;23.10;97.10;;;;;;4992241;28;20534;-55
2023/08/07 12:12:07;;;;;;;4.70;2.50;;;23.20;96.30;;;;;;4991161;28;20579;-55
2023/08/07 12:14:34;;;;;;;5.33;2.40;;;23.40;95.40;;;;;;4991027;28;20256;-55
2023/08/07 12:17:02;;;;;;;4.17;2.20;;;23.50;95.60;;;;;;4991948;28;20508;-57
2023/08/07 12:19:37;;;;;;;7.47;2.90;;;23.40;95.30;;;;;;4992356;28;20939;-57
2023/08/07 12:22:07;;;;;;;8.67;3.00;;;23.30;95.50;;;;;;4992129;28;20494;-57
2023/08/07 12:24:33;;;;;;;7.63;5.10;;;23.30;95.50;;;;;;4990854;28;20918;-57
2023/08/07 12:27:02;;;;;;;15.90;14.23;;;23.40;95.50;;;;;;4991630;28;20460;-56
2023/08/07 12:29:29;;;;;;;8.60;2.67;;;23.30;95.60;;;;;;4992010;28;20531;-56
2023/08/07 12:31:58;;;;;;;2.90;1.80;;;;;;;;;;4992251;28;20441;-57
2023/08/07 12:34:25;;;;;;;5.67;2.50;;;23.30;95.10;;;;;;4991806;28;20445;-56
2023/08/07 12:36:52;;;;;;;4.67;2.13;;;;;;;;;;4991704;28;20459;-58
2023/08/07 12:39:19;;;;;;;6.30;2.47;;;23.10;94.90;;;;;;4991541;28;20461;-57
2023/08/07 12:41:46;;;;;;;4.77;2.33;;;;;;;;;;4992008;28;20441;-56
2023/08/07 12:44:14;;;;;;;3.93;2.17;;;;;;;;;;4991867;28;21013;-57
2023/08/07 12:46:40;;;;;;;6.23;2.70;;;23.00;94.50;;;;;;4991334;28;20469;-56
2023/08/07 12:49:10;;;;;;;8.13;3.03;;;23.00;94.50;;;;;;4991983;28;20442;-57
2023/08/07 12:51:36;;;;;;;11.23;2.93;;;22.90;94.20;;;;;;4992225;28;20497;-56
2023/08/07 12:54:03;;;;;;;7.10;2.83;;;22.90;94.00;;;;;;4992066;28;20634;-56
2023/08/07 12:56:30;;;;;;;9.03;2.70;;;;;;;;;;4991857;28;20494;-56
2023/08/07 12:58:57;;;;;;;7.10;2.70;;;23.00;93.90;;;;;;4991620;28;20433;-57
2023/08/07 13:01:26;;;;;;;5.93;2.57;;;22.90;92.90;;;;;;4991903;28;20440;-57
2023/08/07 13:03:53;;;;;;;8.13;2.63;;;23.00;92.60;;;;;;4991997;28;20522;-57
2023/08/07 13:06:19;;;;;;;7.20;2.87;;;22.90;91.80;;;;;;4991839;28;20452;-56